KHEY/HEY METAR and TAF weather

Enter ICAO airport designator
Station Type Date Time Source
KHEY METAR 2020/06/06 12:58 UTC NOAA

KHEY 061258Z AUTO 11004KT 10SM FEW055 BKN095 24/23 A2999 RMK AO2 SLP155 T02400226


Station Type Date Time Source
KHEY Decoded METAR 2020/06/06 12:58 UTC NOAA

Hanchey AHP / Ozark, AL, United States (KHEY) 31-21N 085-40W
Jun 06, 2020 - 08:58 AM EDT / 2020.06.06 1258 UTC
Wind: from the ESE (110 degrees) at 5 MPH (4 KT):0
Visibility: 10 mile(s):0
Sky conditions: mostly cloudy
Temperature: 75.2 F (24.0 C)
Dew Point: 72.7 F (22.6 C)
Relative Humidity: 91%
Pressure (altimeter): 29.99 in. Hg (1015 hPa)
ob: KHEY 061258Z AUTO 11004KT 10SM FEW055 BKN095 24/23 A2999 RMK AO2 SLP155 T02400226
cycle: 13

Station Type Date Time Source
KHEY TAF UTC NOAA

Error!

Example: see airport list